Monday, August 29, 2016
00:13 UTC
  |  Log In   |  Register Free
Airport Search:

Orlando Sanford International Airport
(KSFB)

FAA data valid effective Jul 21 2016 - Sep 15 2016 (unless otherwise noted).

 
 
 
 
 
 
 
 
 
 
 
 
 
 
Current Aviation Weather for KSFB

Weather Summary


The most recent METAR observation for SFB was updated at: 12:53 UTC
METAR for SFB is not available. Closest METAR is for
METAR

METAR KSFB 282353Z 07008KT 10SM CLR 28/24 A2994 RMK AO2 SLP138 T02830244 10350 20283 53001

METAR KSFB 282253Z 06010KT 10SM FEW028 31/24 A2994 RMK AO2 SLP135 T03060239

METAR KSFB 282153Z 06013KT 10SM FEW031 SCT039 32/23 A2994 RMK AO2 SLP136 T03170233

METAR KDAB 282353Z 08013KT 10SM FEW017 SCT023CB SCT050 28/25 A2996 RMK AO2 LTG DSNT NW SLP144 CB SW-W MOV W CB DSNT NE E-SE T02830250 10333 20283 53001

METAR KDED 282355Z 03004KT 10SM SCT022 SCT027 SCT055 27/25 A2995 RMK AO2 LTG DSNT N

METAR KEVB 282347Z 08010G18KT 10SM SCT012 29/26 A2996

TAF for SFB is not available.
TAF

KSFB - TAF KSFB 282346Z 2900/2924 07008KT P6SM VCSH SCT035 SCT250

KSFB - TEMPO 2900/2902 -SHRA BKN035

KSFB - FM290200 05006KT P6SM FEW030 SCT250

KSFB - FM291500 08009KT P6SM VCSH SCT035 BKN060 BKN250

KSFB - FM291800 08012G18KT P6SM VCTS BKN040CB BKN080 =

KMCO - TAF KMCO 282346Z 2900/2924 07007KT P6SM VCSH SCT035 SCT250

KMCO - TEMPO 2900/2902 -SHRA BKN035

KMCO - FM290200 05006KT P6SM FEW030 SCT250

KMCO - FM291500 08009KT P6SM VCSH SCT035 BKN060 BKN250

KMCO - FM291800 08012G18KT P6SM VCTS BKN040CB BKN080 =

KDAB - TAF KDAB 282346Z 2900/2924 07009KT P6SM VCSH SCT030 SCT250

KDAB - TEMPO 2900/2902 -SHRA BKN035

KDAB - FM290200 06006KT P6SM FEW030 SCT250

KDAB - FM291400 08008KT P6SM VCSH SCT035 BKN080 BKN250

KDAB - FM291800 08010G18KT P6SM BKN035 BKN250 =

KTIX - TAF KTIX 282346Z 2900/2924 09009KT P6SM VCSH SCT030 SCT250

KTIX - FM290200 07006KT P6SM SCT025 SCT250

KTIX - FM291400 09009KT P6SM VCSH SCT030 BKN080 BKN250

KTIX - FM291800 08010G18KT P6SM BKN035 BKN250 AMD NOT SKED 2901/2911 =

KLEE - TAF KLEE 282346Z 2900/2924 07008KT P6SM VCSH FEW030 SCT250

KLEE - FM290200 05006KT P6SM FEW030 SCT250

KLEE - FM291500 08009KT P6SM VCSH SCT035 BKN060 BKN250

KLEE - FM291800 08012G18KT P6SM VCTS BKN040CB BKN080 =

KISM - TAF KISM 282346Z 2900/2924 07007KT P6SM VCSH SCT035 SCT250

KISM - TEMPO 2900/2902 -SHRA BKN035

KISM - FM290200 05006KT P6SM FEW030 SCT250

KISM - FM291500 08009KT P6SM VCSH SCT035 BKN060 BKN250

KISM - FM291800 08012G18KT P6SM VCTS BKN040CB BKN080 =

GlobalAir.com is loading additional information.
 Current Weather at SFB
87.0 F° (30.6 C°)

Northeast winds at 11.5 mph
Pressure:
29.94 in
Humidity:
67%
Wind:
Northeast at 11.5 mph
Dew Point:
75.0 F° (23.9 C°)
Visibility:
10.00 mi
SFB NOAA Radar




Find All Airport Services Find A Hotel Find A Rental Car Find A Golf Course Find A Restaurant $100 Hamburger



Airport Weather Forecast for KSFB

Translated METAR for KSFB (2353 UTC)
METAR:
KSFB 282353Z Orlando Sanford International, Orlando, FL (KSFB). Sep 28, 2353Z. Wind from 070° at 8 knots, 10 statute miles visibility, Clear Skies, Temperature 28°C, Dewpoint 24°C, Altimeter is 29.94. Remarks: automated station with precipitation discriminator sea level pressure 1013.8 hectopascals hourly temp 28.3°C dewpoint 24.4°C 6-hour max temp 35.0°C 6-hour min temp 28.3°C 3-hour atmospheric pressure decreasing or steady, then increasing; or increasing then increasing more rapidly by 0.1 hectopascals
Conditions at:
KSFB (Orlando Sanford Intl, FL) observed 2353 UTC 28 August 2016
Temperature:
87.0 F° (30.6 C°)
Dewpoint:
not reported - refer to area weather report
Pressure:
29.94 Hg
Winds:
not reported
Visibility:
10.00
Ceiling:
at least 12,000 feet AGL
Clouds:
not reported - refer to area weather report
Remarks:

Translated TAF for TAF for SFB is not available. Refer to local area forecast.
FBO's on the Field
FBO Company Facility Photos Services Transportation Aviation Fuel Prices: Prices include tax
Catering Weather Repair Courtesy Rental Type 100LL JetA JetA+ MOGAS 8087
 
StarPort

StarPort logo
Currently rated 5 by 7 people
FS:
Last Updated: Aug-23
Login to update fuel prices
SS:
Contact StarPortMore FBO Information
 
Million Air Sanford

Currently rated 5 by 3 people
FS:Ascent
Last Updated: Aug-23
Login to update fuel prices
SS:
Contact Million Air SanfordMore FBO Information
 
Add another FBO Facility Photos Catering Weather Repair Courtesy Rental Type 100LL JetA JetA+ MOGAS 8087
Services Transportation Aviation Fuel Prices: Prices include tax


model-print
model-print
model-print
model-print